createdAt,value
2018-11-23T00:00:33.612Z,0.80
2018-11-23T00:03:03.104Z,0.90
2018-11-23T00:05:32.389Z,0.90
2018-11-23T00:08:01.637Z,1.00
2018-11-23T00:10:32.281Z,0.90
2018-11-23T00:13:01.564Z,0.80
2018-11-23T00:15:30.828Z,0.70
2018-11-23T00:18:00.111Z,0.70
2018-11-23T00:20:30.185Z,0.70
2018-11-23T00:22:59.435Z,0.70
2018-11-23T00:25:28.992Z,0.60
2018-11-23T00:27:58.683Z,0.60
2018-11-23T00:30:29.445Z,0.60
2018-11-23T00:32:58.745Z,0.60
2018-11-23T00:35:29.473Z,0.60
2018-11-23T00:37:58.744Z,0.60
2018-11-23T00:40:29.199Z,0.50
2018-11-23T00:42:58.676Z,0.50
2018-11-23T00:45:27.991Z,0.50
2018-11-23T00:47:57.900Z,0.50
2018-11-23T00:50:27.491Z,0.50
2018-11-23T00:52:58.047Z,0.40
2018-11-23T00:55:27.887Z,0.50
2018-11-23T00:57:57.151Z,0.40
2018-11-23T01:00:30.870Z,0.40
2018-11-23T01:03:01.179Z,0.30
2018-11-23T01:05:30.508Z,0.20
2018-11-23T01:07:59.803Z,0.20
2018-11-23T01:10:30.033Z,0.10
2018-11-23T01:12:59.520Z,0.00
2018-11-23T01:15:28.798Z,0.00
2018-11-23T01:17:58.098Z,0.00
2018-11-23T01:20:27.959Z,-0.10
2018-11-23T01:22:57.971Z,-0.10
2018-11-23T01:25:28.077Z,-0.10
2018-11-23T01:27:57.599Z,-0.20
2018-11-23T01:30:28.319Z,-0.30
2018-11-23T01:32:57.569Z,-0.30
2018-11-23T01:35:26.908Z,-0.30
2018-11-23T01:37:56.286Z,-0.40
2018-11-23T01:40:26.834Z,-0.40
2018-11-23T01:42:56.475Z,-0.50
2018-11-23T01:45:26.291Z,-0.50
2018-11-23T01:47:55.662Z,-0.50
2018-11-23T01:50:26.299Z,-0.60
2018-11-23T01:52:55.575Z,-0.60
2018-11-23T01:55:25.384Z,-0.60
2018-11-23T01:57:54.679Z,-0.60
2018-11-23T02:00:25.119Z,-0.60
2018-11-23T02:02:55.170Z,-0.60
2018-11-23T02:05:24.463Z,-0.60
2018-11-23T02:07:53.825Z,-0.60
2018-11-23T02:10:23.075Z,-0.60
2018-11-23T02:12:52.452Z,-0.60
2018-11-23T02:15:22.694Z,-0.50
2018-11-23T02:17:52.622Z,-0.50
2018-11-23T02:20:22.575Z,-0.40
2018-11-23T02:22:51.851Z,-0.30
2018-11-23T02:25:21.088Z,-0.20
2018-11-23T02:27:50.333Z,-0.10
2018-11-23T02:30:24.895Z,-0.10
2018-11-23T02:32:54.134Z,0.00
2018-11-23T02:35:23.396Z,0.00
2018-11-23T02:37:52.691Z,0.00
2018-11-23T02:40:22.229Z,0.00
2018-11-23T02:42:51.518Z,0.00
2018-11-23T02:45:23.199Z,0.00
2018-11-23T02:47:52.817Z,0.00
2018-11-23T02:50:22.035Z,0.00
2018-11-23T02:52:51.607Z,0.10
2018-11-23T02:55:21.214Z,0.10
2018-11-23T02:57:50.479Z,0.10
2018-11-23T03:00:21.306Z,0.10
2018-11-23T03:02:50.666Z,0.10
2018-11-23T03:05:21.394Z,0.00
2018-11-23T03:07:50.681Z,0.00
2018-11-23T03:10:20.008Z,0.00
2018-11-23T03:12:49.766Z,0.00
2018-11-23T03:15:23.501Z,0.00
2018-11-23T03:17:52.759Z,-0.20
2018-11-23T03:20:22.791Z,-0.30
2018-11-23T03:22:52.051Z,-0.40
2018-11-23T03:25:21.416Z,-0.50
2018-11-23T03:27:50.722Z,-0.60
2018-11-23T03:30:21.151Z,-0.60
2018-11-23T03:32:51.136Z,-0.70
2018-11-23T03:35:20.974Z,-0.70
2018-11-23T03:37:50.243Z,-0.70
2018-11-23T03:40:19.517Z,-0.80
2018-11-23T03:42:48.778Z,-0.80
2018-11-23T03:45:18.243Z,-0.90
2018-11-23T03:47:47.657Z,-0.90
2018-11-23T03:50:17.643Z,-1.00
2018-11-23T03:52:47.219Z,-1.00
2018-11-23T03:55:16.515Z,-1.00
2018-11-23T03:57:45.788Z,-1.00
2018-11-23T04:00:17.774Z,-1.00
2018-11-23T04:02:46.984Z,-1.00
2018-11-23T04:05:16.522Z,-1.00
2018-11-23T04:07:45.992Z,-1.00
2018-11-23T04:10:16.507Z,-2.40
2018-11-23T04:12:46.132Z,-1.00
2018-11-23T04:15:15.674Z,-1.00
2018-11-23T04:17:44.961Z,-1.00
2018-11-23T04:20:15.464Z,-1.00
2018-11-23T04:22:44.784Z,-0.90
2018-11-23T04:25:14.469Z,-0.80
2018-11-23T04:30:15.025Z,-0.70
2018-11-23T04:32:44.764Z,-0.60
2018-11-23T04:35:15.257Z,-0.60
2018-11-23T04:37:45.283Z,-0.60
2018-11-23T04:40:15.287Z,-0.70
2018-11-23T04:42:44.621Z,-0.70
2018-11-23T04:45:14.296Z,-0.80
2018-11-23T04:47:43.588Z,-0.80
2018-11-23T04:50:14.610Z,-0.80
2018-11-23T04:52:44.163Z,-0.80
2018-11-23T04:55:13.464Z,-0.80
2018-11-23T04:57:43.151Z,-0.70
2018-11-23T05:00:14.875Z,-0.70
2018-11-23T05:02:44.771Z,-0.70
2018-11-23T05:05:14.345Z,-0.60
2018-11-23T05:07:44.847Z,-0.60
2018-11-23T05:10:15.190Z,-0.60
2018-11-23T05:12:44.480Z,-0.50
2018-11-23T05:15:15.218Z,-0.50
2018-11-23T05:17:44.628Z,-0.40
2018-11-23T05:20:14.644Z,-0.40
2018-11-23T05:22:44.171Z,-0.40
2018-11-23T05:25:14.986Z,-0.40
2018-11-23T05:27:44.251Z,-0.50
2018-11-23T05:30:16.512Z,-0.50
2018-11-23T05:32:45.815Z,-0.60
2018-11-23T05:35:15.979Z,-0.70
2018-11-23T05:37:45.277Z,-0.80
2018-11-23T05:40:16.892Z,-0.80
2018-11-23T05:42:46.165Z,-0.80
2018-11-23T05:45:18.909Z,-0.90
2018-11-23T05:47:48.287Z,-1.00
2018-11-23T05:50:21.313Z,-1.00
2018-11-23T05:52:50.689Z,-1.00
2018-11-23T05:55:19.966Z,-1.00
2018-11-23T05:57:49.548Z,-1.00
2018-11-23T06:00:21.175Z,-1.00
2018-11-23T06:02:50.812Z,-0.90
2018-11-23T06:05:20.067Z,-1.00
2018-11-23T06:07:49.407Z,-1.00
2018-11-23T06:10:19.937Z,-1.00
2018-11-23T06:12:49.205Z,-0.90
2018-11-23T06:15:20.388Z,-0.90
2018-11-23T06:17:50.567Z,-0.90
2018-11-23T06:20:22.252Z,-1.00
2018-11-23T06:22:52.902Z,-1.00
2018-11-23T06:25:44.615Z,-1.00
2018-11-23T06:28:13.911Z,-1.10
2018-11-23T06:30:44.413Z,-1.10
2018-11-23T06:33:29.908Z,-1.10
2018-11-23T06:35:59.233Z,-1.10
2018-11-23T06:38:28.504Z,-1.00
2018-11-23T06:40:57.737Z,-0.90
2018-11-23T06:43:27.152Z,-0.90
2018-11-23T06:45:57.822Z,-0.80
2018-11-23T06:48:27.120Z,-0.80
2018-11-23T06:50:56.512Z,-0.70
2018-11-23T06:53:26.041Z,-0.70
2018-11-23T06:55:55.976Z,-0.70
2018-11-23T06:58:25.390Z,-0.70
2018-11-23T07:00:55.162Z,-0.80
2018-11-23T07:03:24.507Z,-0.80
2018-11-23T07:05:54.001Z,-0.80
2018-11-23T07:08:24.175Z,-0.90
2018-11-23T07:10:54.773Z,-1.00
2018-11-23T07:13:24.053Z,-1.00
2018-11-23T07:15:53.438Z,-1.00
2018-11-23T07:20:51.835Z,-1.00
2018-11-23T07:23:23.564Z,-1.10
2018-11-23T07:25:53.071Z,-1.10
2018-11-23T07:28:23.430Z,-1.00
2018-11-23T07:30:54.916Z,-1.00
2018-11-23T07:33:27.851Z,-1.00
2018-11-23T07:35:58.225Z,-1.00
2018-11-23T07:38:27.582Z,-0.90
2018-11-23T07:41:13.903Z,-0.80
2018-11-23T07:43:43.173Z,-0.70
2018-11-23T07:46:12.444Z,-0.60
2018-11-23T07:48:41.723Z,-0.50
2018-11-23T07:51:11.024Z,-0.50
2018-11-23T07:53:40.274Z,-0.40
2018-11-23T07:56:09.574Z,-0.30
2018-11-23T07:58:38.880Z,-0.10
2018-11-23T08:01:08.181Z,0.00
2018-11-23T08:03:37.415Z,0.20
2018-11-23T08:06:06.875Z,0.40
2018-11-23T08:08:36.151Z,0.50
2018-11-23T08:11:08.478Z,0.60
2018-11-23T08:13:38.614Z,0.70
2018-11-23T08:16:07.990Z,0.80
2018-11-23T08:18:40.469Z,0.90
2018-11-23T08:21:09.773Z,0.70
2018-11-23T08:23:39.044Z,1.10
2018-11-23T08:26:08.332Z,1.10
2018-11-23T08:28:37.567Z,1.20
2018-11-23T08:31:06.915Z,1.30
2018-11-23T08:33:36.385Z,1.40
2018-11-23T08:36:07.099Z,1.50
2018-11-23T08:38:36.389Z,1.60
2018-11-23T08:41:06.032Z,1.60
2018-11-23T08:43:35.340Z,1.60
2018-11-23T08:46:04.676Z,1.70
2018-11-23T08:48:34.013Z,1.80
2018-11-23T08:51:03.388Z,1.90
2018-11-23T08:53:34.906Z,2.00
2018-11-23T08:56:05.020Z,2.00
2018-11-23T08:58:34.326Z,2.10
2018-11-23T09:01:03.746Z,2.20
2018-11-23T09:03:34.004Z,2.30
2018-11-23T09:06:04.184Z,2.30
2018-11-23T09:08:33.546Z,2.50
2018-11-23T09:11:02.948Z,2.50
2018-11-23T09:13:32.600Z,2.60
2018-11-23T09:18:31.725Z,2.70
2018-11-23T09:21:01.033Z,2.80
2018-11-23T09:23:30.885Z,2.90
2018-11-23T09:26:00.209Z,3.00
2018-11-23T09:28:29.809Z,3.10
2018-11-23T09:31:00.383Z,1.40
2018-11-23T09:33:29.725Z,3.40
2018-11-23T09:35:59.645Z,3.50
2018-11-23T09:38:30.535Z,3.60
2018-11-23T09:40:59.796Z,3.60
2018-11-23T09:43:29.271Z,3.70
2018-11-23T09:45:58.559Z,3.80
2018-11-23T09:48:28.276Z,3.90
2018-11-23T09:50:58.187Z,4.00
2018-11-23T09:53:28.265Z,4.00
2018-11-23T09:55:58.734Z,4.10
2018-11-23T09:58:28.014Z,4.30
2018-11-23T10:00:57.281Z,4.40
2018-11-23T10:03:26.633Z,4.50
2018-11-23T10:05:56.371Z,4.60
2018-11-23T10:08:27.725Z,4.70
2018-11-23T10:10:57.775Z,4.80
2018-11-23T10:13:27.237Z,4.90
2018-11-23T10:15:56.726Z,4.90
2018-11-23T10:18:26.259Z,5.00
2018-11-23T10:20:55.550Z,5.10
2018-11-23T10:23:24.830Z,5.10
2018-11-23T10:25:54.296Z,5.10
2018-11-23T10:28:23.640Z,5.10
2018-11-23T10:30:52.904Z,5.20
2018-11-23T10:33:28.176Z,5.30
2018-11-23T10:35:55.794Z,5.30
2018-11-23T10:38:30.473Z,5.40
2018-11-23T10:40:59.786Z,5.50
2018-11-23T10:43:29.620Z,5.60
2018-11-23T10:45:58.941Z,5.70
2018-11-23T10:48:28.344Z,5.70
2018-11-23T10:50:57.668Z,5.80
2018-11-23T10:53:27.793Z,5.90
2018-11-23T10:55:57.062Z,6.00
2018-11-23T10:58:26.392Z,6.10
2018-11-23T11:01:03.134Z,6.10
2018-11-23T11:03:33.424Z,6.20
2018-11-23T11:06:11.401Z,6.30
2018-11-23T11:11:13.780Z,6.40
2018-11-23T11:13:42.381Z,6.40
2018-11-23T11:16:11.690Z,6.50
2018-11-23T11:18:40.992Z,6.50
2018-11-23T11:21:10.271Z,6.50
2018-11-23T11:23:39.580Z,6.50
2018-11-23T11:26:08.864Z,6.60
2018-11-23T11:28:38.169Z,6.70
2018-11-23T11:31:07.655Z,6.70
2018-11-23T11:33:41.264Z,6.80
2018-11-23T11:36:10.579Z,6.80
2018-11-23T11:38:39.887Z,6.70
2018-11-23T11:41:09.201Z,6.80
2018-11-23T11:43:39.016Z,6.80
2018-11-23T11:46:08.598Z,6.90
2018-11-23T11:48:38.495Z,6.90
2018-11-23T11:51:08.552Z,7.00
2018-11-23T11:53:37.895Z,7.00
2018-11-23T11:56:07.397Z,7.10
2018-11-23T11:58:36.880Z,7.10
2018-11-23T12:01:06.481Z,7.20
2018-11-23T12:03:35.761Z,7.30
2018-11-23T12:06:05.703Z,7.30
2018-11-23T12:08:35.000Z,7.30
2018-11-23T12:11:04.309Z,7.30
2018-11-23T12:13:33.636Z,7.30
2018-11-23T12:16:02.940Z,7.30
2018-11-23T12:18:32.260Z,7.40
2018-11-23T12:21:01.514Z,7.40
2018-11-23T12:23:30.878Z,7.40
2018-11-23T12:26:00.169Z,7.40
2018-11-23T12:28:29.485Z,7.40
2018-11-23T12:30:58.768Z,7.40
2018-11-23T12:33:28.208Z,7.50
2018-11-23T12:35:57.614Z,7.50
2018-11-23T12:38:26.937Z,7.50
2018-11-23T12:40:56.237Z,7.50
2018-11-23T12:43:25.610Z,7.60
2018-11-23T12:45:55.431Z,7.60
2018-11-23T12:48:24.829Z,7.70
2018-11-23T12:50:54.238Z,7.70
2018-11-23T12:53:23.740Z,7.90
2018-11-23T12:55:54.445Z,8.00
2018-11-23T12:58:23.700Z,8.10
2018-11-23T13:00:53.096Z,8.10
2018-11-23T13:03:22.432Z,8.10
2018-11-23T13:05:51.802Z,8.20
2018-11-23T13:08:21.387Z,8.20
2018-11-23T13:10:51.398Z,8.20
2018-11-23T13:13:20.712Z,8.20
2018-11-23T13:15:50.071Z,8.30
2018-11-23T13:18:19.359Z,8.30
2018-11-23T13:20:48.811Z,8.30
2018-11-23T13:23:18.116Z,8.30
2018-11-23T13:25:47.461Z,8.30
2018-11-23T13:28:16.820Z,8.30
2018-11-23T13:30:46.103Z,8.30
2018-11-23T13:33:15.404Z,8.30
2018-11-23T13:35:45.131Z,8.30
2018-11-23T13:38:14.417Z,8.30
2018-11-23T13:40:45.474Z,8.40
2018-11-23T13:43:15.004Z,8.40
2018-11-23T13:45:44.376Z,8.40
2018-11-23T13:48:19.686Z,8.40
2018-11-23T13:50:42.937Z,8.50
2018-11-23T13:53:12.222Z,8.40
2018-11-23T13:55:41.549Z,8.40
2018-11-23T13:58:10.800Z,8.40
2018-11-23T14:00:40.123Z,8.30
2018-11-23T14:03:09.426Z,8.30
2018-11-23T14:05:38.700Z,8.40
2018-11-23T14:08:07.911Z,8.40
2018-11-23T14:10:37.267Z,8.30
2018-11-23T14:13:11.366Z,8.30
2018-11-23T14:15:35.881Z,8.30
2018-11-23T14:18:05.373Z,8.20
2018-11-23T14:20:34.708Z,8.20
2018-11-23T14:23:03.978Z,8.10
2018-11-23T14:25:33.269Z,8.10
2018-11-23T14:28:02.561Z,8.00
2018-11-23T14:30:33.228Z,7.90
2018-11-23T14:33:03.092Z,7.90
2018-11-23T14:35:33.594Z,7.90
2018-11-23T14:38:03.170Z,7.80
2018-11-23T14:40:32.449Z,7.80
2018-11-23T14:43:01.798Z,7.70
2018-11-23T14:45:33.242Z,7.70
2018-11-23T14:48:05.576Z,7.60
2018-11-23T14:50:36.218Z,7.50
2018-11-23T14:53:05.564Z,7.50
2018-11-23T14:55:34.828Z,7.40
2018-11-23T14:58:04.122Z,7.40
2018-11-23T15:00:35.393Z,7.30
2018-11-23T15:03:05.787Z,7.20
2018-11-23T15:05:35.411Z,7.20
2018-11-23T15:08:04.840Z,7.10
2018-11-23T15:13:05.149Z,7.00
2018-11-23T15:15:36.946Z,6.90
2018-11-23T15:18:07.298Z,6.80
2018-11-23T15:20:39.851Z,6.70
2018-11-23T15:23:12.233Z,6.60
2018-11-23T15:25:41.496Z,6.60
2018-11-23T15:28:14.767Z,6.50
2018-11-23T15:30:45.323Z,6.50
2018-11-23T15:33:17.551Z,6.40
2018-11-23T15:35:46.991Z,6.30
2018-11-23T15:38:18.859Z,6.30
2018-11-23T15:40:48.310Z,6.20
2018-11-23T15:43:18.654Z,6.30
2018-11-23T15:45:48.322Z,6.20
2018-11-23T15:48:17.629Z,6.20
2018-11-23T15:50:46.930Z,6.20
2018-11-23T15:53:19.115Z,6.10
2018-11-23T15:55:48.657Z,6.00
2018-11-23T15:58:18.573Z,6.00
2018-11-23T16:00:48.943Z,6.00
2018-11-23T16:03:18.439Z,5.90
2018-11-23T16:05:47.767Z,6.00
2018-11-23T16:08:21.349Z,5.80
2018-11-23T16:10:50.694Z,5.80
2018-11-23T16:13:19.976Z,5.80
2018-11-23T16:15:49.286Z,5.70
2018-11-23T16:18:18.947Z,5.80
2018-11-23T16:20:48.241Z,5.70
2018-11-23T16:23:20.022Z,5.70
2018-11-23T16:25:54.612Z,5.60
2018-11-23T16:28:23.880Z,5.50
2018-11-23T16:30:53.131Z,5.60
2018-11-23T16:33:24.680Z,5.60
2018-11-23T16:35:53.148Z,5.50
2018-11-23T16:38:23.707Z,5.40
2018-11-23T16:40:56.145Z,5.40
2018-11-23T16:43:25.509Z,5.30
2018-11-23T16:45:54.929Z,5.30
2018-11-23T16:48:24.239Z,5.20
2018-11-23T16:50:53.518Z,5.10
2018-11-23T16:53:22.793Z,5.00
2018-11-23T16:55:52.019Z,4.90
2018-11-23T16:58:21.326Z,4.90
2018-11-23T17:00:50.485Z,4.80
2018-11-23T17:03:21.296Z,4.80
2018-11-23T17:05:52.942Z,4.80
2018-11-23T17:08:22.243Z,4.70
2018-11-23T17:10:51.490Z,4.70
2018-11-23T17:13:20.798Z,4.60
2018-11-23T17:15:50.074Z,4.60
2018-11-23T17:18:19.415Z,4.50
2018-11-23T17:20:48.791Z,4.50
2018-11-23T17:25:47.258Z,4.40
2018-11-23T17:28:17.457Z,4.40
2018-11-23T17:30:46.723Z,4.30
2018-11-23T17:33:20.786Z,4.30
2018-11-23T17:35:50.049Z,4.20
2018-11-23T17:38:19.450Z,4.20
2018-11-23T17:40:49.292Z,4.10
2018-11-23T17:43:18.676Z,4.10
2018-11-23T17:45:50.803Z,4.10
2018-11-23T17:48:20.447Z,4.00
2018-11-23T17:50:49.864Z,4.00
2018-11-23T17:53:20.297Z,3.90
2018-11-23T17:55:53.426Z,3.80
2018-11-23T17:58:22.771Z,3.80
2018-11-23T18:00:52.465Z,3.70
2018-11-23T18:03:24.186Z,3.70
2018-11-23T18:05:53.629Z,3.70
2018-11-23T18:08:23.052Z,3.60
2018-11-23T18:10:52.461Z,3.60
2018-11-23T18:13:22.484Z,3.60
2018-11-23T18:15:52.579Z,3.50
2018-11-23T18:18:22.285Z,3.50
2018-11-23T18:20:51.633Z,3.50
2018-11-23T18:23:20.991Z,3.50
2018-11-23T18:25:50.623Z,3.50
2018-11-23T18:30:50.102Z,3.40
2018-11-23T18:33:19.443Z,3.40
2018-11-23T18:35:48.831Z,3.40
2018-11-23T18:38:18.221Z,3.30
2018-11-23T18:40:47.477Z,3.40
2018-11-23T18:43:16.849Z,3.30
2018-11-23T18:45:46.135Z,3.30
2018-11-23T18:48:15.366Z,3.30
2018-11-23T18:50:46.277Z,3.30
2018-11-23T18:53:16.903Z,3.30
2018-11-23T18:55:46.351Z,3.30
2018-11-23T18:58:15.595Z,3.30
2018-11-23T19:00:47.002Z,3.30
2018-11-23T19:03:16.405Z,3.30
2018-11-23T19:05:45.704Z,3.30
2018-11-23T19:08:15.674Z,3.30
2018-11-23T19:10:45.152Z,3.30
2018-11-23T19:13:14.495Z,3.20
2018-11-23T19:15:43.768Z,3.20
2018-11-23T19:18:13.067Z,3.20
2018-11-23T19:20:42.794Z,3.30
2018-11-23T19:23:12.072Z,3.30
2018-11-23T19:25:41.355Z,3.30
2018-11-23T19:28:10.629Z,3.30
2018-11-23T19:30:39.959Z,3.40
2018-11-23T19:33:12.925Z,3.30
2018-11-23T19:35:43.875Z,3.30
2018-11-23T19:38:13.237Z,3.30
2018-11-23T19:40:42.597Z,3.30
2018-11-23T19:43:11.833Z,3.30
2018-11-23T19:45:45.216Z,3.30
2018-11-23T19:48:14.505Z,3.30
2018-11-23T19:50:43.825Z,3.30
2018-11-23T19:53:13.102Z,3.30
2018-11-23T19:55:42.372Z,3.30
2018-11-23T19:58:11.614Z,3.30
2018-11-23T20:00:40.899Z,3.30
2018-11-23T20:03:10.120Z,3.30
2018-11-23T20:05:39.411Z,3.30
2018-11-23T20:08:08.671Z,3.30
2018-11-23T20:10:38.012Z,3.30
2018-11-23T20:13:07.345Z,3.30
2018-11-23T20:15:36.672Z,3.30
2018-11-23T20:18:06.559Z,3.30
2018-11-23T20:20:35.820Z,3.30
2018-11-23T20:23:06.518Z,3.30
2018-11-23T20:25:36.158Z,3.30
2018-11-23T20:28:05.523Z,3.30
2018-11-23T20:30:42.115Z,3.30
2018-11-23T20:33:04.528Z,3.30
2018-11-23T20:35:33.708Z,3.30
2018-11-23T20:38:03.064Z,3.30
2018-11-23T20:40:32.361Z,3.30
2018-11-23T20:43:02.171Z,3.20
2018-11-23T20:45:31.428Z,3.20
2018-11-23T20:48:01.246Z,3.10
2018-11-23T20:50:30.542Z,3.10
2018-11-23T20:52:59.958Z,3.10
2018-11-23T20:55:29.367Z,3.10
2018-11-23T20:57:58.651Z,3.10
2018-11-23T21:00:28.067Z,3.10
2018-11-23T21:02:59.441Z,3.10
2018-11-23T21:05:28.831Z,3.10
2018-11-23T21:07:58.131Z,3.20
2018-11-23T21:10:27.534Z,3.20
2018-11-23T21:12:56.838Z,3.10
2018-11-23T21:15:31.769Z,3.30
2018-11-23T21:18:04.193Z,3.20
2018-11-23T21:20:33.597Z,3.20
2018-11-23T21:23:02.831Z,3.20
2018-11-23T21:25:32.112Z,3.30
2018-11-23T21:28:01.331Z,3.30
2018-11-23T21:30:30.614Z,3.30
2018-11-23T21:32:59.836Z,3.20
2018-11-23T21:35:29.132Z,3.20
2018-11-23T21:37:58.374Z,3.30
2018-11-23T21:40:27.673Z,3.30
2018-11-23T21:42:57.176Z,3.20
2018-11-23T21:45:26.427Z,3.30
2018-11-23T21:47:59.780Z,3.30
2018-11-23T21:50:29.080Z,3.30
2018-11-23T21:52:58.395Z,3.30
2018-11-23T21:55:27.632Z,3.30
2018-11-23T21:57:57.895Z,3.30
2018-11-23T22:00:27.250Z,3.40
2018-11-23T22:02:56.495Z,3.40
2018-11-23T22:05:25.842Z,3.40
2018-11-23T22:07:55.116Z,3.40
2018-11-23T22:10:24.364Z,3.40
2018-11-23T22:12:53.662Z,3.40
2018-11-23T22:15:24.519Z,3.40
2018-11-23T22:17:55.900Z,3.40
2018-11-23T22:20:26.434Z,3.40
2018-11-23T22:22:58.670Z,3.40
2018-11-23T22:25:28.026Z,3.40
2018-11-23T22:27:57.303Z,3.30
2018-11-23T22:30:33.137Z,3.40
2018-11-23T22:33:03.130Z,3.30
2018-11-23T22:35:32.516Z,3.30
2018-11-23T22:38:01.792Z,3.30
2018-11-23T22:40:31.120Z,3.30
2018-11-23T22:43:00.600Z,3.40
2018-11-23T22:45:30.927Z,3.30
2018-11-23T22:48:00.208Z,3.30
2018-11-23T22:50:29.551Z,3.30
2018-11-23T22:52:58.793Z,3.30
2018-11-23T22:55:28.039Z,3.30
2018-11-23T22:57:57.326Z,3.30
2018-11-23T23:00:32.743Z,3.30
2018-11-23T23:03:01.961Z,3.30
2018-11-23T23:05:31.207Z,3.30
2018-11-23T23:08:00.457Z,3.30
2018-11-23T23:10:29.757Z,3.30
2018-11-23T23:12:58.982Z,3.40
2018-11-23T23:15:28.223Z,3.40
2018-11-23T23:17:57.493Z,3.40
2018-11-23T23:20:26.732Z,3.40
2018-11-23T23:22:56.010Z,3.50
2018-11-23T23:25:25.244Z,3.50
2018-11-23T23:27:54.612Z,3.50
2018-11-23T23:30:23.890Z,3.50
2018-11-23T23:32:53.167Z,3.50
2018-11-23T23:35:22.488Z,3.50
2018-11-23T23:37:51.743Z,3.50
2018-11-23T23:40:20.971Z,3.50
2018-11-23T23:42:50.223Z,3.60
2018-11-23T23:45:19.622Z,3.60
2018-11-23T23:47:48.976Z,3.70
2018-11-23T23:50:22.121Z,3.60
2018-11-23T23:52:52.015Z,3.60
2018-11-23T23:55:21.288Z,3.60
2018-11-23T23:57:50.531Z,3.60
